Time;durP1;ratioP1;P1;durP2;ratioP2;P2;SDS_P1;SDS_P2;PMS_P1;PMS_P2;Temp;Humidity;BMP_temperature;BMP_pressure;BME280_temperature;BME280_humidity;BME280_pressure;Samples;Min_cycle;Max_cycle;Signal;HPM_P1;HPM_P2
2022/03/19 00:02:21;;;;;;;0.77;0.77;;;1.40;99.90;;;;;;5060615;28;20478;-85
2022/03/19 00:04:48;;;;;;;0.30;0.20;;;1.30;99.90;;;;;;5063939;28;20548;-86
2022/03/19 00:07:16;;;;;;;0.40;0.30;;;1.30;99.90;;;;;;5066774;28;20460;-85
2022/03/19 00:09:43;;;;;;;0.40;0.30;;;1.20;99.90;;;;;;5066533;28;20466;-88
2022/03/19 00:12:14;;;;;;;0.57;0.50;;;1.20;99.90;;;;;;5062446;28;20471;-87
2022/03/19 00:14:41;;;;;;;3.17;1.73;;;1.20;99.90;;;;;;5066687;28;20522;-86
2022/03/19 00:17:10;;;;;;;0.43;0.40;;;1.20;99.90;;;;;;5068460;28;20443;-89
2022/03/19 00:19:38;;;;;;;0.40;0.17;;;1.20;99.90;;;;;;5065286;28;20845;-86
2022/03/19 00:22:05;;;;;;;3.03;1.30;;;1.20;99.90;;;;;;5065927;28;20456;-89
2022/03/19 00:24:32;;;;;;;0.30;0.10;;;1.10;99.90;;;;;;5068479;28;20539;-87
2022/03/19 00:26:59;;;;;;;0.30;0.10;;;1.10;99.90;;;;;;5065383;28;20937;-89
2022/03/19 00:29:26;;;;;;;0.73;0.73;;;1.00;99.90;;;;;;5063935;28;21265;-88
2022/03/19 00:31:54;;;;;;;0.30;0.20;;;1.10;99.90;;;;;;5069147;28;20444;-85
2022/03/19 00:34:22;;;;;;;0.30;0.20;;;1.00;99.90;;;;;;5063625;28;20483;-86
2022/03/19 00:36:50;;;;;;;0.47;0.47;;;0.90;99.90;;;;;;5063159;28;20447;-85
2022/03/19 00:39:17;;;;;;;1.80;1.13;;;0.80;99.90;;;;;;5063812;28;20455;-86
2022/03/19 00:41:44;;;;;;;0.30;0.20;;;0.80;99.90;;;;;;5058596;28;20475;-86
2022/03/19 00:44:11;;;;;;;0.30;0.13;;;0.70;99.90;;;;;;5063085;28;20556;-86
2022/03/19 00:46:38;;;;;;;1.40;1.27;;;0.70;99.90;;;;;;5065680;28;20513;-88
2022/03/19 00:49:05;;;;;;;0.40;0.30;;;0.90;99.90;;;;;;5066011;28;20500;-86
2022/03/19 00:51:36;;;;;;;0.33;0.23;;;1.00;99.90;;;;;;5068008;28;20508;-85
2022/03/19 00:54:03;;;;;;;0.30;0.20;;;1.00;99.90;;;;;;5061542;28;20478;-86
2022/03/19 00:56:30;;;;;;;0.30;0.10;;;0.90;99.90;;;;;;5066093;28;20454;-89
2022/03/19 00:58:57;;;;;;;0.30;0.20;;;0.80;99.90;;;;;;5065598;28;20505;-86
2022/03/19 01:01:24;;;;;;;0.67;0.67;;;0.70;99.90;;;;;;5069685;28;20470;-86
2022/03/19 01:03:51;;;;;;;0.87;0.87;;;0.60;99.90;;;;;;5070123;28;20460;-86
2022/03/19 01:06:18;;;;;;;0.70;0.70;;;0.50;99.90;;;;;;5063819;28;20885;-87
2022/03/19 01:08:47;;;;;;;1.17;1.07;;;0.40;99.90;;;;;;5072160;28;20483;-87
2022/03/19 01:11:14;;;;;;;0.30;0.10;;;0.40;99.90;;;;;;5067986;28;20525;-87
2022/03/19 01:13:41;;;;;;;0.30;0.10;;;0.40;99.90;;;;;;5066774;28;20475;-86
2022/03/19 01:16:09;;;;;;;2.83;0.53;;;0.40;99.90;;;;;;5066012;28;20513;-86
2022/03/19 01:18:36;;;;;;;0.40;0.37;;;0.40;99.90;;;;;;5071803;28;20479;-85
2022/03/19 01:21:02;;;;;;;0.30;0.10;;;0.60;99.90;;;;;;5070448;28;20446;-85
2022/03/19 01:23:29;;;;;;;0.30;0.20;;;0.70;99.90;;;;;;5065318;28;21037;-86
2022/03/19 01:25:58;;;;;;;0.30;0.10;;;0.60;99.90;;;;;;5069115;28;20354;-88
2022/03/19 01:28:25;;;;;;;0.30;0.10;;;0.60;99.90;;;;;;5070910;28;20263;-85
2022/03/19 01:30:52;;;;;;;0.30;0.20;;;0.60;99.90;;;;;;5071113;28;20872;-84
2022/03/19 01:33:19;;;;;;;0.30;0.20;;;0.50;99.90;;;;;;5069165;28;20490;-86
2022/03/19 01:35:46;;;;;;;0.30;0.10;;;0.40;99.90;;;;;;5070261;28;20969;-86
2022/03/19 01:38:13;;;;;;;0.30;0.10;;;0.40;99.90;;;;;;5069587;28;20470;-88
2022/03/19 01:40:40;;;;;;;1.33;0.40;;;0.30;99.90;;;;;;5068777;28;21142;-85
2022/03/19 01:43:08;;;;;;;0.30;0.20;;;0.20;99.90;;;;;;5069903;28;20475;-86
2022/03/19 01:45:35;;;;;;;0.30;0.20;;;0.10;99.90;;;;;;5068700;28;20467;-86
2022/03/19 01:48:02;;;;;;;0.30;0.13;;;0.10;99.90;;;;;;5070344;28;21032;-88
2022/03/19 01:50:29;;;;;;;0.30;0.20;;;0.00;99.90;;;;;;5069752;28;20459;-90
2022/03/19 01:52:57;;;;;;;0.60;0.60;;;0.20;99.90;;;;;;5082672;28;20262;-90
2022/03/19 01:55:26;;;;;;;0.30;0.20;;;0.20;99.90;;;;;;5070295;28;20209;-89
2022/03/19 01:57:54;;;;;;;2.70;0.50;;;0.20;99.90;;;;;;5066146;28;20670;-89
2022/03/19 02:00:25;;;;;;;0.30;0.10;;;0.20;99.90;;;;;;5065524;28;20199;-88
2022/03/19 02:02:53;;;;;;;2.80;1.33;;;0.30;99.90;;;;;;5063233;28;20207;-88
2022/03/19 02:05:21;;;;;;;0.75;0.75;;;0.30;99.90;;;;;;5066848;28;20257;-89
2022/03/19 02:07:49;;;;;;;0.43;0.43;;;0.30;99.90;;;;;;5068354;28;20258;-91
2022/03/19 02:10:18;;;;;;;0.30;0.10;;;0.10;99.90;;;;;;5065905;28;20728;-89
2022/03/19 02:12:46;;;;;;;2.28;0.55;;;0.10;99.90;;;;;;5069814;28;20608;-90
2022/03/19 02:15:14;;;;;;;0.30;0.20;;;0.30;99.90;;;;;;5066237;28;20199;-90
2022/03/19 02:17:42;;;;;;;0.30;0.10;;;0.30;99.90;;;;;;5067588;28;20231;-88
2022/03/19 02:20:10;;;;;;;0.40;0.30;;;0.30;99.90;;;;;;5067559;28;20262;-89
2022/03/19 02:22:37;;;;;;;1.35;0.57;;;0.30;99.90;;;;;;5064353;28;20760;-87
2022/03/19 02:27:51;;;;;;;0.30;0.10;;;0.10;99.90;;;;;;5067415;28;20270;-89
2022/03/19 02:30:19;;;;;;;0.77;0.73;;;0.10;99.90;;;;;;5068648;28;20612;-90
2022/03/19 02:32:49;;;;;;;0.30;0.10;;;0.10;99.90;;;;;;5069722;28;21934;-88
2022/03/19 02:35:18;;;;;;;0.80;0.80;;;0.10;99.90;;;;;;5069483;28;20202;-88
2022/03/19 02:37:46;;;;;;;0.30;0.20;;;0.10;99.90;;;;;;5067354;28;20747;-89
2022/03/19 02:40:16;;;;;;;0.85;0.57;;;0.20;99.90;;;;;;5069018;28;20264;-88
2022/03/19 02:42:44;;;;;;;0.30;0.20;;;0.30;99.90;;;;;;5064266;28;20201;-88
2022/03/19 02:45:11;;;;;;;0.30;0.20;;;0.30;99.90;;;;;;5068431;28;20690;-88
2022/03/19 02:47:56;;;;;;;0.50;0.50;;;0.20;99.90;;;;;;5065494;28;20247;-89
2022/03/19 02:50:24;;;;;;;0.30;0.20;;;0.10;99.90;;;;;;5066506;28;20217;-88
2022/03/19 02:52:51;;;;;;;0.30;0.10;;;0.20;99.90;;;;;;5065693;28;20202;-89
2022/03/19 02:55:20;;;;;;;0.30;0.10;;;0.20;99.90;;;;;;5061052;28;20222;-89
2022/03/19 02:57:47;;;;;;;0.30;0.20;;;0.20;99.90;;;;;;5071530;28;20739;-86
2022/03/19 03:00:15;;;;;;;0.55;0.55;;;0.20;99.90;;;;;;5068716;28;20218;-87
2022/03/19 03:02:42;;;;;;;0.30;0.10;;;0.20;99.90;;;;;;5069837;28;20658;-88
2022/03/19 03:05:11;;;;;;;0.30;0.10;;;0.10;99.90;;;;;;5064493;28;20211;-86
2022/03/19 03:07:38;;;;;;;0.30;0.20;;;0.00;99.90;;;;;;5065545;28;20214;-86
2022/03/19 03:10:06;;;;;;;2.70;0.50;;;-0.10;99.90;;;;;;5065317;28;20218;-87
2022/03/19 03:12:35;;;;;;;0.75;0.55;;;-0.30;99.90;;;;;;5063907;28;20203;-85
2022/03/19 03:15:02;;;;;;;0.30;0.20;;;-0.40;99.90;;;;;;5066309;28;20221;-88
2022/03/19 03:17:30;;;;;;;0.52;0.52;;;-0.50;99.90;;;;;;5066430;28;20204;-86
2022/03/19 03:19:57;;;;;;;0.40;0.20;;;-0.60;99.90;;;;;;5068515;28;20282;-86
2022/03/19 03:22:24;;;;;;;0.30;0.20;;;-0.60;99.90;;;;;;5066723;28;20634;-89
2022/03/19 03:24:50;;;;;;;0.30;0.17;;;-0.50;99.90;;;;;;5065763;28;20273;-87
2022/03/19 03:27:17;;;;;;;0.30;0.10;;;-0.50;99.90;;;;;;5068302;28;20202;-88
2022/03/19 03:29:46;;;;;;;0.57;0.57;;;-0.60;99.90;;;;;;5069949;28;20612;-88
2022/03/19 03:32:13;;;;;;;0.93;0.93;;;-0.60;99.90;;;;;;5069517;28;20228;-89
2022/03/19 03:34:41;;;;;;;0.30;0.20;;;-0.70;99.90;;;;;;5064543;28;20264;-90
2022/03/19 03:37:09;;;;;;;0.30;0.20;;;-0.70;99.90;;;;;;5068633;28;20204;-88
2022/03/19 03:39:36;;;;;;;0.40;0.30;;;-0.70;99.90;;;;;;5069125;28;20236;-88
2022/03/19 03:42:03;;;;;;;0.57;0.57;;;-0.60;99.90;;;;;;5066811;28;20198;-88
2022/03/19 03:44:30;;;;;;;0.30;0.10;;;-0.60;99.90;;;;;;5066064;28;20268;-88
2022/03/19 03:46:58;;;;;;;0.30;0.20;;;-0.60;99.90;;;;;;5065619;28;20199;-88
2022/03/19 03:49:25;;;;;;;0.30;0.10;;;-0.70;99.90;;;;;;5068351;28;20299;-89
2022/03/19 03:51:53;;;;;;;0.40;0.30;;;-0.70;99.90;;;;;;5074348;28;20205;-88
2022/03/19 03:54:20;;;;;;;0.63;0.63;;;-0.80;99.90;;;;;;5085659;28;20252;-88
2022/03/19 03:56:47;;;;;;;0.47;0.47;;;-0.90;99.90;;;;;;5084311;28;20201;-88
2022/03/19 03:59:14;;;;;;;0.30;0.10;;;-1.00;99.90;;;;;;5074732;28;20200;-88
2022/03/19 04:01:41;;;;;;;0.30;0.10;;;-1.00;99.90;;;;;;5072133;28;20213;-88
2022/03/19 04:04:09;;;;;;;0.55;0.55;;;-1.10;99.90;;;;;;5079392;28;20203;-87
2022/03/19 04:06:36;;;;;;;0.47;0.47;;;-1.10;99.90;;;;;;5077739;28;20206;-87
2022/03/19 04:09:03;;;;;;;0.30;0.20;;;-1.10;99.90;;;;;;5074224;28;20230;-87
2022/03/19 04:11:30;;;;;;;0.30;0.20;;;-1.10;99.90;;;;;;5065600;28;20276;-87
2022/03/19 04:13:59;;;;;;;0.40;0.20;;;-1.10;99.90;;;;;;5062942;28;20231;-87
2022/03/19 04:16:26;;;;;;;0.98;0.57;;;-1.00;99.90;;;;;;5062739;28;20211;-88
2022/03/19 04:18:53;;;;;;;0.32;0.20;;;-1.00;99.90;;;;;;5066951;28;20234;-88
2022/03/19 04:21:22;;;;;;;0.30;0.10;;;-1.00;99.90;;;;;;5066086;28;20252;-88
2022/03/19 04:23:49;;;;;;;0.77;0.77;;;-1.00;99.90;;;;;;5069014;28;20212;-87
2022/03/19 04:26:16;;;;;;;0.40;0.40;;;-1.00;99.90;;;;;;5063336;28;20201;-88
2022/03/19 04:28:43;;;;;;;0.30;0.20;;;-1.10;99.90;;;;;;5067686;28;20726;-89
2022/03/19 04:31:10;;;;;;;1.42;0.57;;;-1.00;99.90;;;;;;5067817;28;20731;-87
2022/03/19 04:33:37;;;;;;;0.30;0.20;;;-1.00;99.90;;;;;;5062147;28;20323;-88
2022/03/19 04:38:50;;;;;;;0.30;0.10;;;-1.10;99.90;;;;;;5068603;28;20680;-87
2022/03/19 04:41:17;;;;;;;0.30;0.10;;;-1.10;99.90;;;;;;5069714;28;20273;-89
2022/03/19 04:43:44;;;;;;;1.45;1.45;;;-1.10;99.90;;;;;;5067544;28;20211;-87
2022/03/19 04:46:11;;;;;;;0.30;0.10;;;-1.10;99.90;;;;;;5070195;28;20197;-88
2022/03/19 04:48:38;;;;;;;0.30;0.30;;;-1.20;99.90;;;;;;5070415;28;20669;-90
2022/03/19 04:51:05;;;;;;;0.30;0.20;;;-1.20;99.90;;;;;;5068275;28;20210;-87
2022/03/19 04:53:32;;;;;;;0.30;0.20;;;-1.20;99.90;;;;;;5067583;28;20201;-88
2022/03/19 04:56:01;;;;;;;0.30;0.10;;;-1.20;99.90;;;;;;5068148;28;20256;-87
2022/03/19 04:58:28;;;;;;;0.50;0.50;;;-1.10;99.90;;;;;;5072366;28;20284;-87
2022/03/19 05:00:55;;;;;;;0.30;0.20;;;-1.10;99.90;;;;;;5072342;28;20221;-88
2022/03/19 05:03:21;;;;;;;1.88;1.33;;;-1.00;99.90;;;;;;5068541;28;20206;-88
2022/03/19 05:05:48;;;;;;;0.30;0.20;;;-0.70;99.90;;;;;;5069207;28;20205;-88
2022/03/19 05:08:16;;;;;;;0.68;0.50;;;-0.60;99.90;;;;;;5070976;28;20209;-86
2022/03/19 05:13:30;;;;;;;0.40;0.20;;;-0.50;99.90;;;;;;5072069;28;20267;-88
2022/03/19 05:15:56;;;;;;;0.30;0.10;;;-0.40;99.90;;;;;;5067506;28;20205;-89
2022/03/19 05:18:24;;;;;;;0.40;0.20;;;-0.40;99.90;;;;;;5068709;28;20307;-88
2022/03/19 05:20:51;;;;;;;0.30;0.20;;;-0.40;99.90;;;;;;5066859;28;20306;-88
2022/03/19 05:23:18;;;;;;;0.30;0.17;;;-0.30;99.90;;;;;;5069976;28;20207;-88
2022/03/19 05:25:45;;;;;;;0.30;0.20;;;-0.10;99.90;;;;;;5064266;28;20263;-88
2022/03/19 05:28:13;;;;;;;0.30;0.10;;;0.00;99.90;;;;;;5069880;28;20235;-87
2022/03/19 05:30:41;;;;;;;0.30;0.10;;;0.00;99.90;;;;;;5068815;28;20249;-89
2022/03/19 05:33:08;;;;;;;1.00;1.00;;;0.00;99.90;;;;;;5070974;28;20203;-88
2022/03/19 05:35:36;;;;;;;0.52;0.47;;;-0.10;99.90;;;;;;5069131;28;20607;-87
2022/03/19 05:38:05;;;;;;;1.08;1.08;;;-0.10;99.90;;;;;;5071299;28;20198;-87
2022/03/19 05:40:32;;;;;;;0.65;0.65;;;-0.10;99.90;;;;;;5067383;28;20204;-87
2022/03/19 05:42:59;;;;;;;0.30;0.20;;;-0.20;99.90;;;;;;5067884;28;20201;-88
2022/03/19 05:45:26;;;;;;;0.30;0.17;;;-0.40;99.90;;;;;;5070250;28;20633;-85
2022/03/19 05:47:54;;;;;;;0.45;0.45;;;-0.50;99.90;;;;;;5068041;28;20586;-85
2022/03/19 05:50:21;;;;;;;0.30;0.20;;;-0.50;99.90;;;;;;5065837;28;20262;-88
2022/03/19 05:52:48;;;;;;;0.63;0.63;;;-0.60;99.90;;;;;;5069313;28;20603;-87
2022/03/19 05:55:15;;;;;;;0.85;0.85;;;-0.50;99.90;;;;;;5059599;28;20250;-87
2022/03/19 05:57:42;;;;;;;0.40;0.40;;;-0.40;99.90;;;;;;5062684;28;20204;-87
2022/03/19 06:00:11;;;;;;;1.38;1.27;;;-0.20;99.90;;;;;;5078918;28;20416;-86
2022/03/19 06:02:42;;;;;;;0.30;0.20;;;-0.20;99.90;;;;;;5079750;28;20286;-85
2022/03/19 06:05:11;;;;;;;0.52;0.52;;;-0.10;99.90;;;;;;5056104;28;20209;-86
2022/03/19 06:07:38;;;;;;;0.47;0.47;;;0.00;99.90;;;;;;5050435;28;20205;-86
2022/03/19 06:10:06;;;;;;;0.30;0.20;;;0.10;99.90;;;;;;5060501;28;20264;-85
2022/03/19 06:12:34;;;;;;;0.40;0.20;;;0.10;99.90;;;;;;5053958;28;20679;-83
2022/03/19 06:15:01;;;;;;;0.47;0.47;;;0.20;99.90;;;;;;5059094;28;20238;-84
2022/03/19 06:17:28;;;;;;;1.67;1.57;;;0.40;99.90;;;;;;5069003;28;20795;-85
2022/03/19 06:19:55;;;;;;;1.07;1.07;;;0.30;99.90;;;;;;5064846;28;21149;-85
2022/03/19 06:22:23;;;;;;;0.50;0.50;;;0.40;99.90;;;;;;5067987;28;22326;-86
2022/03/19 06:24:50;;;;;;;0.40;0.30;;;0.50;99.90;;;;;;5054473;28;20199;-86
2022/03/19 06:27:17;;;;;;;0.30;0.10;;;0.70;99.90;;;;;;5064041;28;20377;-86
2022/03/19 06:29:44;;;;;;;0.30;0.10;;;0.80;99.90;;;;;;5071435;28;20270;-85
2022/03/19 06:32:11;;;;;;;0.30;0.20;;;0.90;99.90;;;;;;5069078;28;20261;-85
2022/03/19 06:34:38;;;;;;;0.30;0.10;;;0.90;99.90;;;;;;5052447;28;20228;-85
2022/03/19 06:37:19;;;;;;;1.40;0.82;;;0.90;99.90;;;;;;5071544;28;20294;-85
2022/03/19 06:39:49;;;;;;;0.30;0.20;;;1.00;99.90;;;;;;5065814;28;20794;-85
2022/03/19 06:42:15;;;;;;;0.83;0.83;;;1.10;99.90;;;;;;5071834;28;20234;-86
2022/03/19 06:44:42;;;;;;;1.58;0.60;;;1.20;99.90;;;;;;5065309;28;20561;-85
2022/03/19 06:47:09;;;;;;;2.72;2.47;;;1.30;99.90;;;;;;5060789;28;20211;-85
2022/03/19 06:49:36;;;;;;;0.30;0.20;;;1.30;99.90;;;;;;5070756;28;20263;-86
2022/03/19 06:52:04;;;;;;;0.30;0.10;;;1.20;99.90;;;;;;5074889;28;20258;-85
2022/03/19 06:54:31;;;;;;;1.33;1.33;;;1.30;99.90;;;;;;5070689;28;20220;-85
2022/03/19 06:56:59;;;;;;;0.40;0.40;;;1.40;99.90;;;;;;5057835;28;20216;-85
2022/03/19 06:59:26;;;;;;;0.30;0.25;;;1.40;99.90;;;;;;5060740;28;20216;-84
2022/03/19 07:01:53;;;;;;;0.70;0.30;;;1.40;99.90;;;;;;5071175;28;20248;-87
2022/03/19 07:04:20;;;;;;;0.43;0.35;;;1.40;99.90;;;;;;5069638;28;20627;-85
2022/03/19 07:06:47;;;;;;;0.30;0.10;;;1.60;99.90;;;;;;5065147;28;20208;-86
2022/03/19 07:09:14;;;;;;;0.30;0.20;;;1.60;99.90;;;;;;5069375;28;20227;-86
2022/03/19 07:11:41;;;;;;;0.30;0.10;;;1.80;99.90;;;;;;5070072;28;20264;-87
2022/03/19 07:14:10;;;;;;;0.50;0.50;;;2.00;99.90;;;;;;5050843;28;20220;-86
2022/03/19 07:16:38;;;;;;;0.60;0.38;;;2.00;99.90;;;;;;5067400;28;20205;-86
2022/03/19 07:19:05;;;;;;;0.30;0.10;;;2.20;99.90;;;;;;5071135;28;20232;-85
2022/03/19 07:21:32;;;;;;;0.40;0.30;;;2.30;99.90;;;;;;5082664;28;20200;-85
2022/03/19 07:23:59;;;;;;;0.90;0.90;;;2.30;99.90;;;;;;5055751;28;20503;-85
2022/03/19 07:26:27;;;;;;;0.45;0.35;;;2.40;99.90;;;;;;5068864;28;20399;-86
2022/03/19 07:28:54;;;;;;;0.73;0.73;;;2.40;99.90;;;;;;5086748;28;20295;-85
2022/03/19 07:31:22;;;;;;;0.40;0.40;;;2.20;99.90;;;;;;5072556;28;20465;-86
2022/03/19 07:33:50;;;;;;;0.50;0.50;;;2.20;99.90;;;;;;5060871;28;20871;-85
2022/03/19 07:36:19;;;;;;;0.65;0.65;;;2.40;99.90;;;;;;5069527;28;20492;-85
2022/03/19 07:38:46;;;;;;;0.30;0.20;;;2.50;99.90;;;;;;5063779;28;20207;-86
2022/03/19 07:43:59;;;;;;;0.40;0.30;;;2.50;99.90;;;;;;5071282;28;20302;-85
2022/03/19 07:46:27;;;;;;;0.40;0.40;;;2.50;99.90;;;;;;5079144;28;20515;-88
2022/03/19 07:48:55;;;;;;;0.38;0.32;;;2.60;99.90;;;;;;5065855;28;20808;-85
2022/03/19 07:51:21;;;;;;;0.30;0.20;;;2.60;99.90;;;;;;5067006;28;20295;-85
2022/03/19 07:53:48;;;;;;;1.80;1.70;;;2.70;99.90;;;;;;5070071;28;20270;-86
2022/03/19 07:56:15;;;;;;;0.80;0.80;;;2.80;99.90;;;;;;5062979;28;20541;-90
2022/03/19 07:58:42;;;;;;;0.40;0.27;;;2.70;99.90;;;;;;5066285;28;20511;-87
2022/03/19 08:01:10;;;;;;;0.30;0.20;;;2.80;99.90;;;;;;5071119;28;20516;-87
2022/03/19 08:03:38;;;;;;;0.30;0.10;;;2.90;99.90;;;;;;5062543;28;20460;-84
2022/03/19 08:06:05;;;;;;;1.13;1.03;;;3.20;99.90;;;;;;5064198;28;20469;-84
2022/03/19 08:08:33;;;;;;;0.30;0.10;;;3.40;99.90;;;;;;5050894;28;20479;-84
2022/03/19 08:11:00;;;;;;;0.30;0.20;;;3.60;99.90;;;;;;5049996;28;20528;-84
2022/03/19 08:13:27;;;;;;;0.83;0.83;;;3.70;99.90;;;;;;5049887;28;20467;-84
2022/03/19 08:15:54;;;;;;;0.40;0.30;;;3.80;99.90;;;;;;5059640;28;20532;-85
2022/03/19 08:18:21;;;;;;;0.40;0.30;;;4.00;99.90;;;;;;5064689;28;20550;-83
2022/03/19 08:20:49;;;;;;;0.40;0.40;;;4.10;99.90;;;;;;5065307;28;20459;-84
2022/03/19 08:23:17;;;;;;;3.30;2.00;;;4.20;99.90;;;;;;5067636;28;20460;-87
2022/03/19 08:25:44;;;;;;;0.30;0.10;;;4.30;99.90;;;;;;5066419;28;20460;-83
2022/03/19 08:28:11;;;;;;;0.40;0.33;;;4.40;99.90;;;;;;5054823;28;21007;-84
2022/03/19 08:30:38;;;;;;;0.83;0.83;;;4.40;99.90;;;;;;5056912;28;20510;-85
2022/03/19 08:33:05;;;;;;;0.50;0.50;;;4.60;99.90;;;;;;5049242;28;20989;-84
2022/03/19 08:35:32;;;;;;;0.30;0.20;;;4.90;99.90;;;;;;5066371;28;21116;-83
2022/03/19 08:40:44;;;;;;;0.70;0.70;;;5.10;97.30;;;;;;5067785;28;20537;-83
2022/03/19 08:43:11;;;;;;;0.40;0.30;;;5.10;96.30;;;;;;5068322;28;20459;-87
2022/03/19 08:45:38;;;;;;;3.63;3.40;;;5.10;95.80;;;;;;5066167;28;20501;-86
2022/03/19 08:48:05;;;;;;;0.73;0.73;;;5.20;95.70;;;;;;5067208;28;20476;-83
2022/03/19 08:50:32;;;;;;;0.40;0.40;;;5.30;95.50;;;;;;5065553;28;20468;-81
2022/03/19 08:53:01;;;;;;;0.40;0.30;;;5.40;94.30;;;;;;5069658;28;20519;-82
2022/03/19 08:55:28;;;;;;;1.00;0.50;;;5.60;93.90;;;;;;5067610;28;20524;-83
2022/03/19 08:57:55;;;;;;;1.03;1.03;;;5.70;94.30;;;;;;5062005;28;20970;-82
2022/03/19 09:00:22;;;;;;;0.83;0.53;;;5.70;93.50;;;;;;5051703;28;20602;-82
2022/03/19 09:02:49;;;;;;;0.83;0.83;;;5.70;93.10;;;;;;5049704;28;20449;-82
2022/03/19 09:05:17;;;;;;;0.30;0.20;;;6.00;93.60;;;;;;5068601;28;20451;-82
2022/03/19 09:07:44;;;;;;;0.70;0.70;;;6.10;91.50;;;;;;5050432;28;20523;-85
2022/03/19 09:10:12;;;;;;;2.00;1.90;;;6.00;89.70;;;;;;5049189;28;20515;-81
2022/03/19 09:12:40;;;;;;;0.30;0.20;;;6.00;87.90;;;;;;5049247;28;20522;-83
2022/03/19 09:15:09;;;;;;;0.40;0.40;;;6.00;87.10;;;;;;5054405;28;20557;-82
2022/03/19 09:17:37;;;;;;;0.40;0.40;;;6.20;85.60;;;;;;5066498;28;20485;-82
2022/03/19 09:20:05;;;;;;;1.90;0.97;;;6.30;86.90;;;;;;5063314;28;20460;-84
2022/03/19 09:22:32;;;;;;;0.57;0.57;;;6.40;85.50;;;;;;5071716;28;20509;-82
2022/03/19 09:25:00;;;;;;;0.47;0.47;;;6.40;83.90;;;;;;5073079;28;20521;-82
2022/03/19 09:27:28;;;;;;;0.40;0.27;;;6.60;82.50;;;;;;5073101;28;20516;-83
2022/03/19 09:29:55;;;;;;;0.30;0.20;;;6.90;82.50;;;;;;5057454;28;20456;-82
2022/03/19 09:32:22;;;;;;;1.83;1.83;;;6.70;81.80;;;;;;5052336;28;20860;-82
2022/03/19 09:34:51;;;;;;;0.30;0.20;;;6.60;82.20;;;;;;5052754;28;20462;-84
2022/03/19 09:37:18;;;;;;;2.30;2.20;;;6.60;79.20;;;;;;5052829;28;20991;-84
2022/03/19 09:39:45;;;;;;;0.50;0.47;;;6.80;82.70;;;;;;5070963;28;20939;-82
2022/03/19 09:42:14;;;;;;;1.17;0.43;;;7.00;83.10;;;;;;5059796;28;20477;-85
2022/03/19 09:44:43;;;;;;;0.57;0.57;;;7.10;79.90;;;;;;5052704;28;20453;-82
2022/03/19 09:47:10;;;;;;;1.90;1.80;;;7.10;76.30;;;;;;5060401;28;20473;-82
2022/03/19 09:49:51;;;;;;;1.07;0.50;;;7.20;77.30;;;;;;5061148;28;20464;-85
2022/03/19 09:52:34;;;;;;;0.30;0.20;;;7.30;77.60;;;;;;5071181;28;20503;-86
2022/03/19 09:55:01;;;;;;;1.93;1.80;;;7.50;77.40;;;;;;5062928;28;20467;-84
2022/03/19 09:57:32;;;;;;;0.63;0.63;;;7.40;75.80;;;;;;5072021;28;20517;-87
2022/03/19 10:00:22;;;;;;;1.13;0.77;;;7.20;77.50;;;;;;5064389;28;20474;-88
2022/03/19 10:03:09;;;;;;;0.50;0.30;;;7.10;76.30;;;;;;5052397;28;20485;-86
2022/03/19 10:08:58;;;;;;;0.80;0.80;;;7.30;73.80;;;;;;5070589;28;20446;-82
2022/03/19 10:11:30;;;;;;;0.30;0.20;;;7.20;72.90;;;;;;5071687;28;20471;-85
2022/03/19 10:13:57;;;;;;;0.40;0.30;;;7.20;71.80;;;;;;5065882;28;20928;-84
2022/03/19 10:16:28;;;;;;;0.30;0.10;;;7.50;73.00;;;;;;5067911;28;20486;-85
2022/03/19 10:18:57;;;;;;;1.23;1.17;;;7.70;69.10;;;;;;5051749;28;20526;-84
2022/03/19 10:21:25;;;;;;;1.13;0.93;;;8.10;70.20;;;;;;5061746;28;20949;-87
2022/03/19 10:23:53;;;;;;;0.30;0.30;;;7.70;65.50;;;;;;5071901;28;20509;-84
2022/03/19 10:26:28;;;;;;;0.77;0.77;;;8.10;65.70;;;;;;5071969;28;20486;-86
2022/03/19 10:29:00;;;;;;;0.30;0.20;;;8.10;64.50;;;;;;5070418;28;20501;-85
2022/03/19 10:31:33;;;;;;;0.80;0.80;;;8.40;66.30;;;;;;5071788;28;20492;-87
2022/03/19 10:34:00;;;;;;;0.37;0.30;;;8.20;65.30;;;;;;5071241;28;20519;-87
2022/03/19 10:36:34;;;;;;;0.73;0.37;;;8.20;63.40;;;;;;5071262;28;20495;-87
2022/03/19 10:39:06;;;;;;;0.77;0.70;;;8.10;63.20;;;;;;5069493;28;20512;-87
2022/03/19 10:41:35;;;;;;;1.20;1.17;;;8.30;61.50;;;;;;5071741;28;20915;-92
2022/03/19 10:44:12;;;;;;;0.40;0.30;;;8.60;62.80;;;;;;5068258;28;20458;-87
2022/03/19 10:46:44;;;;;;;0.50;0.50;;;8.90;60.60;;;;;;5068180;28;20453;-83
2022/03/19 10:49:15;;;;;;;3.90;1.33;;;9.10;59.60;;;;;;5062394;28;20448;-84
2022/03/19 10:51:45;;;;;;;2.23;1.13;;;9.30;61.90;;;;;;5064026;28;20453;-86
2022/03/19 10:54:14;;;;;;;2.87;1.90;;;9.40;59.20;;;;;;5063261;28;20488;-87
2022/03/19 10:56:41;;;;;;;0.30;0.20;;;9.50;58.60;;;;;;5068325;28;20490;-90
2022/03/19 10:59:08;;;;;;;0.80;0.70;;;9.40;58.70;;;;;;5062996;28;20959;-88
2022/03/19 11:01:36;;;;;;;1.90;0.57;;;9.20;58.50;;;;;;5051430;28;20881;-85
2022/03/19 11:04:07;;;;;;;0.57;0.57;;;9.30;58.80;;;;;;5051229;28;20551;-85
2022/03/19 11:06:37;;;;;;;0.40;0.30;;;9.40;56.90;;;;;;5051019;28;20468;-87
2022/03/19 11:09:06;;;;;;;0.30;0.20;;;9.50;57.40;;;;;;5052303;28;20453;-87
2022/03/19 11:11:40;;;;;;;0.40;0.30;;;9.30;58.40;;;;;;5075084;28;20458;-87
2022/03/19 11:14:09;;;;;;;1.07;1.00;;;9.50;59.40;;;;;;5066011;28;20467;-86
2022/03/19 11:16:37;;;;;;;0.50;0.50;;;9.50;59.70;;;;;;5070690;28;20522;-88
2022/03/19 11:19:06;;;;;;;2.00;1.60;;;9.30;58.30;;;;;;5070271;28;21014;-85
2022/03/19 11:21:33;;;;;;;1.17;1.17;;;9.20;58.50;;;;;;5068776;28;20611;-85
2022/03/19 11:24:10;;;;;;;0.70;0.40;;;9.30;59.20;;;;;;5070689;28;20444;-87
2022/03/19 11:26:38;;;;;;;0.40;0.30;;;9.10;56.70;;;;;;5071365;28;20454;-86
2022/03/19 11:29:06;;;;;;;0.40;0.30;;;9.00;58.30;;;;;;5064534;28;20493;-85
2022/03/19 11:31:33;;;;;;;0.67;0.57;;;9.20;58.80;;;;;;5067700;28;20504;-85
2022/03/19 11:34:13;;;;;;;0.87;0.17;;;9.30;56.20;;;;;;5051140;28;20954;-85
2022/03/19 11:36:56;;;;;;;0.30;0.20;;;9.50;57.90;;;;;;5067973;28;20701;-85
2022/03/19 11:39:23;;;;;;;0.57;0.57;;;9.30;56.80;;;;;;5065467;28;20559;-86
2022/03/19 11:41:51;;;;;;;2.20;2.07;;;9.50;59.40;;;;;;5070594;28;20462;-86
2022/03/19 11:44:19;;;;;;;0.37;0.23;;;9.70;57.40;;;;;;5069380;28;20456;-85
2022/03/19 11:46:59;;;;;;;0.77;0.77;;;9.70;56.80;;;;;;5068195;28;20468;-85
2022/03/19 11:49:49;;;;;;;0.40;0.20;;;9.70;58.00;;;;;;5064323;28;20518;-85
2022/03/19 11:52:59;;;;;;;0.30;0.20;;;9.90;59.00;;;;;;5053288;28;20454;-85
2022/03/19 11:55:29;;;;;;;0.60;0.50;;;10.00;58.50;;;;;;5059171;28;20476;-84
2022/03/19 11:58:00;;;;;;;0.40;0.23;;;10.00;58.10;;;;;;5049133;28;20509;-84
2022/03/19 12:00:29;;;;;;;0.90;0.90;;;10.00;56.70;;;;;;5050270;28;20544;-86
2022/03/19 12:03:13;;;;;;;1.07;1.07;;;10.20;56.00;;;;;;5049812;28;21197;-84
2022/03/19 12:05:43;;;;;;;1.40;1.30;;;10.00;55.50;;;;;;5057807;28;20459;-85
2022/03/19 12:08:13;;;;;;;0.40;0.40;;;10.00;56.60;;;;;;5072201;28;20770;-85
2022/03/19 12:11:01;;;;;;;0.40;0.33;;;10.00;55.50;;;;;;5049405;28;20503;-85
2022/03/19 12:13:39;;;;;;;2.13;1.93;;;10.00;55.80;;;;;;5050367;28;20501;-82
2022/03/19 12:16:08;;;;;;;1.47;1.37;;;10.30;57.00;;;;;;5059758;28;20493;-82
2022/03/19 12:18:44;;;;;;;0.40;0.40;;;9.80;56.20;;;;;;5069971;28;20478;-82
2022/03/19 12:21:23;;;;;;;0.40;0.30;;;10.00;56.00;;;;;;5069627;28;20447;-82
2022/03/19 12:23:57;;;;;;;0.50;0.50;;;10.10;57.60;;;;;;5066472;28;20460;-84
2022/03/19 12:26:25;;;;;;;1.43;0.93;;;10.10;56.60;;;;;;5050536;28;20513;-83
2022/03/19 12:29:00;;;;;;;0.40;0.27;;;10.00;56.00;;;;;;5049940;28;20556;-82
2022/03/19 12:31:31;;;;;;;3.73;0.60;;;9.80;55.30;;;;;;5049802;28;20943;-85
2022/03/19 12:33:58;;;;;;;0.30;0.20;;;9.70;56.20;;;;;;5050624;28;20470;-85
2022/03/19 12:36:25;;;;;;;1.23;0.83;;;9.90;57.30;;;;;;5069769;28;20536;-83
2022/03/19 12:38:54;;;;;;;5.50;1.80;;;9.80;56.60;;;;;;5053950;28;20957;-83
2022/03/19 12:41:27;;;;;;;0.87;0.87;;;9.90;55.80;;;;;;5069678;28;20504;-85
2022/03/19 12:43:55;;;;;;;0.93;0.93;;;10.10;57.20;;;;;;5057820;28;20491;-83
2022/03/19 12:46:24;;;;;;;0.30;0.20;;;9.90;56.00;;;;;;5061922;28;20466;-82
2022/03/19 12:48:51;;;;;;;3.33;1.37;;;9.70;55.70;;;;;;5049748;28;20460;-83
2022/03/19 12:51:26;;;;;;;2.53;2.43;;;9.90;56.10;;;;;;5049740;28;20437;-83
2022/03/19 12:53:55;;;;;;;1.00;1.00;;;9.60;54.90;;;;;;5059050;28;20927;-83
2022/03/19 12:56:24;;;;;;;0.40;0.30;;;9.60;56.50;;;;;;5070560;28;20483;-85
2022/03/19 12:58:53;;;;;;;0.90;0.60;;;9.60;55.70;;;;;;5054992;28;20936;-83
2022/03/19 13:01:23;;;;;;;1.80;0.50;;;9.90;57.60;;;;;;5081850;28;20448;-85
2022/03/19 13:03:54;;;;;;;0.60;0.60;;;9.80;55.50;;;;;;5068616;28;20592;-85
2022/03/19 13:06:29;;;;;;;0.30;0.20;;;9.70;56.60;;;;;;5067353;28;20503;-88
2022/03/19 13:08:57;;;;;;;1.17;0.57;;;9.80;56.60;;;;;;5053636;28;20459;-87
2022/03/19 13:11:24;;;;;;;0.40;0.30;;;10.10;56.40;;;;;;5066899;28;20973;-83
2022/03/19 13:13:51;;;;;;;3.40;3.20;;;10.20;54.90;;;;;;5082531;28;20447;-84
2022/03/19 13:16:32;;;;;;;3.50;3.20;;;10.10;54.40;;;;;;5079659;28;20495;-85
2022/03/19 13:19:04;;;;;;;0.30;0.20;;;10.00;56.00;;;;;;5066177;28;20487;-84
2022/03/19 13:21:33;;;;;;;0.30;0.20;;;9.90;56.60;;;;;;5052749;28;20456;-84